Pagina principală
METAR-TAF:

METAR-TAF

Aeroporturi :

Childress, Texas, Statele Unite ale Americii

Latitudine: 34-25-39N, longitudine: 100-17-00W, elevație: 595 m

Observații meteo curente

Raportul a fost făcut în urmă cu 14 de minute, la 22:53 UTC
Vânt 10 kt de la Sud cu rafale de până la 19 kt
Temperatură 36°C
Umiditate 35%
Presiune 1014 hPa
Vizibilitate: 16.1 km
Cer senin

METAR: KCDS 222253Z AUTO 19010G19KT 10SM CLR 36/18 A2995 RMK AO2 SLP110 T03560178

Ora: 18:07 (23:07 UTC)

Prognoză

Raportul a fost făcut în urmă cu 5 ore și 39 de minute, la 17:28 UTC
Prognoză valabilă de la 22 ora 18 UTC la 23 ora 18 UTC
Vânt 16 kt de la Sud-vest
Vizibilitate: 10 km
Nori puțini la o înălțime de 25000 picior
De la 23 ora 0100 UTC
Vânt 11 kt de la Sud
Vizibilitate: 10 km
Nori puțini la o înălțime de 25000 picior

TAF: KCDS 221728Z 2218/2318 22016KT P6SM FEW250 FM230100 18011KT P6SM FEW250

Observații și prognoze meteo pentru peste 4.000 de aeroporturi (rapoarte METAR și TAF).

Stațiile disponibile sunt reprezentate pe hartă prin puncte galbene și roșii.

Țineți indicatorul mouse-ului pe punctul dorit pentru a vedea denumirea stației.

Apoi, faceți clic pentru a vedea observațiile și prognozele meteorologice.

Pentru a schimba harta: Pentru mărire, faceți clic pe butoanele verzi cu cruce neagră; pentru micșorare, pe butonul verde cu o liniuță; pentru hărți învecinate, pe săgețile verzi.


METAR-TAF: